sensor_id;sensor_type;location;lat;lon;timestamp;P1;durP1;ratioP1;P2;durP2;ratioP2
62353;SDS011;48391;49.184;2.418;2024-03-23T06:00:57;19.00;;;4.65;;
62353;SDS011;48391;49.184;2.418;2024-03-23T06:03:26;14.77;;;2.75;;
62353;SDS011;48391;49.184;2.418;2024-03-23T06:12:39;27.77;;;5.45;;
62353;SDS011;48391;49.184;2.418;2024-03-23T06:15:05;13.70;;;3.28;;
62353;SDS011;48391;49.184;2.418;2024-03-23T06:17:35;7.53;;;2.37;;
62353;SDS011;48391;49.184;2.418;2024-03-23T06:20:01;11.23;;;2.58;;
62353;SDS011;48391;49.184;2.418;2024-03-23T06:22:27;11.38;;;2.53;;
62353;SDS011;48391;49.184;2.418;2024-03-23T06:24:53;7.93;;;2.10;;
62353;SDS011;48391;49.184;2.418;2024-03-23T06:27:19;13.65;;;3.15;;
62353;SDS011;48391;49.184;2.418;2024-03-23T06:29:45;14.13;;;2.00;;
62353;SDS011;48391;49.184;2.418;2024-03-23T06:32:11;7.18;;;2.80;;
62353;SDS011;48391;49.184;2.418;2024-03-23T06:34:37;11.20;;;1.60;;
62353;SDS011;48391;49.184;2.418;2024-03-23T06:37:03;11.43;;;1.90;;
62353;SDS011;48391;49.184;2.418;2024-03-23T06:39:29;11.48;;;1.55;;
62353;SDS011;48391;49.184;2.418;2024-03-23T06:41:55;5.25;;;2.80;;
62353;SDS011;48391;49.184;2.418;2024-03-23T06:44:21;5.32;;;1.10;;
62353;SDS011;48391;49.184;2.418;2024-03-23T06:46:47;11.43;;;1.75;;
62353;SDS011;48391;49.184;2.418;2024-03-23T06:49:14;4.80;;;2.22;;
62353;SDS011;48391;49.184;2.418;2024-03-23T06:51:40;4.68;;;1.38;;
62353;SDS011;48391;49.184;2.418;2024-03-23T06:54:07;12.30;;;2.33;;
62353;SDS011;48391;49.184;2.418;2024-03-23T06:56:33;12.93;;;3.25;;
62353;SDS011;48391;49.184;2.418;2024-03-23T06:58:59;6.90;;;2.25;;
62353;SDS011;48391;49.184;2.418;2024-03-23T07:01:25;10.18;;;1.58;;
62353;SDS011;48391;49.184;2.418;2024-03-23T07:03:51;5.85;;;1.60;;
62353;SDS011;48391;49.184;2.418;2024-03-23T07:06:17;10.55;;;2.58;;
62353;SDS011;48391;49.184;2.418;2024-03-23T07:08:43;7.50;;;2.22;;
62353;SDS011;48391;49.184;2.418;2024-03-23T07:11:09;6.25;;;1.48;;
62353;SDS011;48391;49.184;2.418;2024-03-23T07:13:35;8.90;;;1.75;;
62353;SDS011;48391;49.184;2.418;2024-03-23T07:16:01;1.60;;;0.90;;
62353;SDS011;48391;49.184;2.418;2024-03-23T07:18:27;8.57;;;0.90;;
62353;SDS011;48391;49.184;2.418;2024-03-23T07:20:56;2.90;;;0.90;;
62353;SDS011;48391;49.184;2.418;2024-03-23T07:23:23;2.42;;;0.60;;
62353;SDS011;48391;49.184;2.418;2024-03-23T07:26:02;5.20;;;1.02;;
62353;SDS011;48391;49.184;2.418;2024-03-23T07:28:33;3.85;;;1.02;;
62353;SDS011;48391;49.184;2.418;2024-03-23T07:31:10;11.73;;;1.88;;
62353;SDS011;48391;49.184;2.418;2024-03-23T07:33:37;6.22;;;1.65;;
62353;SDS011;48391;49.184;2.418;2024-03-23T07:36:04;3.67;;;0.98;;
62353;SDS011;48391;49.184;2.418;2024-03-23T07:38:30;5.72;;;1.40;;
62353;SDS011;48391;49.184;2.418;2024-03-23T07:41:09;7.00;;;1.80;;
62353;SDS011;48391;49.184;2.418;2024-03-23T07:43:38;3.67;;;1.02;;
62353;SDS011;48391;49.184;2.418;2024-03-23T07:46:05;7.55;;;1.77;;
62353;SDS011;48391;49.184;2.418;2024-03-23T07:48:31;7.85;;;1.40;;
62353;SDS011;48391;49.184;2.418;2024-03-23T07:50:58;5.85;;;0.80;;
62353;SDS011;48391;49.184;2.418;2024-03-23T07:53:24;14.38;;;1.63;;
62353;SDS011;48391;49.184;2.418;2024-03-23T07:55:54;9.07;;;1.20;;
62353;SDS011;48391;49.184;2.418;2024-03-23T07:58:20;9.27;;;1.17;;
62353;SDS011;48391;49.184;2.418;2024-03-23T08:00:46;4.70;;;0.88;;
62353;SDS011;48391;49.184;2.418;2024-03-23T08:03:12;4.43;;;1.52;;
62353;SDS011;48391;49.184;2.418;2024-03-23T08:05:38;10.73;;;1.48;;
62353;SDS011;48391;49.184;2.418;2024-03-23T08:08:04;13.68;;;1.60;;
62353;SDS011;48391;49.184;2.418;2024-03-23T08:10:30;10.50;;;2.08;;
62353;SDS011;48391;49.184;2.418;2024-03-23T08:12:57;13.63;;;4.03;;
62353;SDS011;48391;49.184;2.418;2024-03-23T08:15:23;10.18;;;2.13;;
62353;SDS011;48391;49.184;2.418;2024-03-23T08:17:49;7.63;;;1.60;;
62353;SDS011;48391;49.184;2.418;2024-03-23T08:20:15;8.68;;;1.58;;
62353;SDS011;48391;49.184;2.418;2024-03-23T08:22:41;9.18;;;2.08;;
62353;SDS011;48391;49.184;2.418;2024-03-23T08:25:07;7.93;;;1.38;;
62353;SDS011;48391;49.184;2.418;2024-03-23T08:27:33;6.13;;;1.52;;
62353;SDS011;48391;49.184;2.418;2024-03-23T08:29:59;7.03;;;2.03;;
62353;SDS011;48391;49.184;2.418;2024-03-23T08:32:25;6.75;;;1.30;;
62353;SDS011;48391;49.184;2.418;2024-03-23T08:34:51;10.90;;;1.73;;
62353;SDS011;48391;49.184;2.418;2024-03-23T08:37:20;7.35;;;1.25;;
62353;SDS011;48391;49.184;2.418;2024-03-23T08:39:46;5.97;;;1.73;;
62353;SDS011;48391;49.184;2.418;2024-03-23T08:42:13;5.40;;;1.95;;
62353;SDS011;48391;49.184;2.418;2024-03-23T08:44:39;4.85;;;1.67;;
62353;SDS011;48391;49.184;2.418;2024-03-23T08:47:05;7.75;;;1.60;;
62353;SDS011;48391;49.184;2.418;2024-03-23T08:49:32;6.53;;;1.60;;
62353;SDS011;48391;49.184;2.418;2024-03-23T08:52:02;5.68;;;1.38;;
62353;SDS011;48391;49.184;2.418;2024-03-23T08:54:33;9.13;;;1.73;;
62353;SDS011;48391;49.184;2.418;2024-03-23T08:56:59;8.60;;;2.72;;
62353;SDS011;48391;49.184;2.418;2024-03-23T08:59:25;3.85;;;1.10;;
62353;SDS011;48391;49.184;2.418;2024-03-23T09:01:52;5.32;;;1.48;;
62353;SDS011;48391;49.184;2.418;2024-03-23T09:04:18;7.72;;;1.80;;
62353;SDS011;48391;49.184;2.418;2024-03-23T09:06:44;8.00;;;1.15;;
62353;SDS011;48391;49.184;2.418;2024-03-23T09:09:11;13.75;;;1.40;;
62353;SDS011;48391;49.184;2.418;2024-03-23T09:11:37;8.43;;;1.60;;
62353;SDS011;48391;49.184;2.418;2024-03-23T09:14:04;3.40;;;0.90;;
62353;SDS011;48391;49.184;2.418;2024-03-23T09:16:30;20.85;;;5.00;;
62353;SDS011;48391;49.184;2.418;2024-03-23T09:18:56;7.50;;;1.58;;
62353;SDS011;48391;49.184;2.418;2024-03-23T09:21:22;29.70;;;7.95;;
62353;SDS011;48391;49.184;2.418;2024-03-23T09:23:48;4.15;;;1.38;;
62353;SDS011;48391;49.184;2.418;2024-03-23T09:26:14;10.05;;;1.27;;
62353;SDS011;48391;49.184;2.418;2024-03-23T09:28:40;9.95;;;1.58;;
62353;SDS011;48391;49.184;2.418;2024-03-23T09:31:06;9.52;;;1.63;;
62353;SDS011;48391;49.184;2.418;2024-03-23T09:33:33;9.93;;;1.77;;
62353;SDS011;48391;49.184;2.418;2024-03-23T09:36:03;14.90;;;2.53;;
62353;SDS011;48391;49.184;2.418;2024-03-23T09:38:29;19.98;;;6.68;;
62353;SDS011;48391;49.184;2.418;2024-03-23T09:40:56;9.50;;;1.33;;
62353;SDS011;48391;49.184;2.418;2024-03-23T09:43:22;7.80;;;1.88;;
62353;SDS011;48391;49.184;2.418;2024-03-23T09:45:48;12.10;;;2.97;;
62353;SDS011;48391;49.184;2.418;2024-03-23T09:48:15;5.68;;;1.92;;
62353;SDS011;48391;49.184;2.418;2024-03-23T09:50:41;6.15;;;0.82;;
62353;SDS011;48391;49.184;2.418;2024-03-23T09:53:08;7.32;;;0.90;;
62353;SDS011;48391;49.184;2.418;2024-03-23T09:55:35;3.28;;;1.20;;
62353;SDS011;48391;49.184;2.418;2024-03-23T09:58:01;4.72;;;1.38;;
62353;SDS011;48391;49.184;2.418;2024-03-23T10:00:28;6.28;;;1.88;;
62353;SDS011;48391;49.184;2.418;2024-03-23T10:02:58;8.57;;;1.10;;
62353;SDS011;48391;49.184;2.418;2024-03-23T10:05:27;4.85;;;1.00;;
62353;SDS011;48391;49.184;2.418;2024-03-23T10:07:53;4.85;;;1.20;;
62353;SDS011;48391;49.184;2.418;2024-03-23T10:10:19;4.47;;;1.00;;
62353;SDS011;48391;49.184;2.418;2024-03-23T10:12:49;4.72;;;1.25;;
62353;SDS011;48391;49.184;2.418;2024-03-23T10:15:19;1.60;;;0.68;;
62353;SDS011;48391;49.184;2.418;2024-03-23T10:17:45;5.55;;;1.20;;
62353;SDS011;48391;49.184;2.418;2024-03-23T10:20:11;9.40;;;1.25;;
62353;SDS011;48391;49.184;2.418;2024-03-23T10:22:38;4.32;;;0.60;;
62353;SDS011;48391;49.184;2.418;2024-03-23T10:25:07;5.72;;;1.23;;
62353;SDS011;48391;49.184;2.418;2024-03-23T10:27:34;4.75;;;0.90;;
62353;SDS011;48391;49.184;2.418;2024-03-23T10:30:09;8.52;;;1.05;;
62353;SDS011;48391;49.184;2.418;2024-03-23T10:32:36;6.00;;;2.15;;
62353;SDS011;48391;49.184;2.418;2024-03-23T10:35:18;3.00;;;0.70;;
62353;SDS011;48391;49.184;2.418;2024-03-23T10:37:45;5.65;;;1.00;;
62353;SDS011;48391;49.184;2.418;2024-03-23T10:40:12;7.97;;;1.77;;
62353;SDS011;48391;49.184;2.418;2024-03-23T10:42:39;3.95;;;1.10;;
62353;SDS011;48391;49.184;2.418;2024-03-23T10:45:05;5.20;;;1.10;;
62353;SDS011;48391;49.184;2.418;2024-03-23T10:47:32;12.15;;;0.98;;
62353;SDS011;48391;49.184;2.418;2024-03-23T10:49:58;7.65;;;0.93;;
62353;SDS011;48391;49.184;2.418;2024-03-23T10:52:24;4.60;;;1.08;;
62353;SDS011;48391;49.184;2.418;2024-03-23T10:54:53;4.57;;;1.13;;
62353;SDS011;48391;49.184;2.418;2024-03-23T10:57:20;4.93;;;1.40;;
62353;SDS011;48391;49.184;2.418;2024-03-23T10:59:47;10.55;;;1.08;;
62353;SDS011;48391;49.184;2.418;2024-03-23T11:02:20;4.22;;;0.60;;
62353;SDS011;48391;49.184;2.418;2024-03-23T11:04:46;4.68;;;1.25;;
62353;SDS011;48391;49.184;2.418;2024-03-23T11:07:28;2.45;;;0.60;;
62353;SDS011;48391;49.184;2.418;2024-03-23T11:09:55;10.82;;;3.33;;
62353;SDS011;48391;49.184;2.418;2024-03-23T11:14:54;4.22;;;0.70;;
62353;SDS011;48391;49.184;2.418;2024-03-23T11:17:22;5.05;;;0.88;;
62353;SDS011;48391;49.184;2.418;2024-03-23T11:19:55;2.95;;;0.45;;
62353;SDS011;48391;49.184;2.418;2024-03-23T11:25:12;6.18;;;1.23;;
62353;SDS011;48391;49.184;2.418;2024-03-23T11:27:38;3.42;;;1.25;;
62353;SDS011;48391;49.184;2.418;2024-03-23T11:32:40;5.55;;;1.67;;
62353;SDS011;48391;49.184;2.418;2024-03-23T11:35:06;7.70;;;1.20;;
62353;SDS011;48391;49.184;2.418;2024-03-23T11:37:32;5.10;;;1.65;;
62353;SDS011;48391;49.184;2.418;2024-03-23T11:39:58;4.93;;;0.30;;
62353;SDS011;48391;49.184;2.418;2024-03-23T11:42:25;5.28;;;0.68;;
62353;SDS011;48391;49.184;2.418;2024-03-23T11:44:51;7.15;;;0.63;;
62353;SDS011;48391;49.184;2.418;2024-03-23T11:47:17;6.22;;;0.43;;
62353;SDS011;48391;49.184;2.418;2024-03-23T11:49:43;1.83;;;0.22;;
62353;SDS011;48391;49.184;2.418;2024-03-23T11:52:09;1.50;;;0.32;;
62353;SDS011;48391;49.184;2.418;2024-03-23T11:54:35;3.90;;;0.47;;
62353;SDS011;48391;49.184;2.418;2024-03-23T11:57:01;2.55;;;0.45;;
62353;SDS011;48391;49.184;2.418;2024-03-23T11:59:39;7.05;;;0.40;;
62353;SDS011;48391;49.184;2.418;2024-03-23T12:02:14;1.90;;;1.63;;
62353;SDS011;48391;49.184;2.418;2024-03-23T12:04:44;5.32;;;1.45;;
62353;SDS011;48391;49.184;2.418;2024-03-23T12:07:14;3.38;;;0.80;;
62353;SDS011;48391;49.184;2.418;2024-03-23T12:09:40;1.05;;;0.30;;
62353;SDS011;48391;49.184;2.418;2024-03-23T12:14:33;3.35;;;0.45;;
62353;SDS011;48391;49.184;2.418;2024-03-23T12:17:12;7.97;;;1.38;;
62353;SDS011;48391;49.184;2.418;2024-03-23T12:19:38;7.50;;;0.60;;
62353;SDS011;48391;49.184;2.418;2024-03-23T12:22:05;6.75;;;0.98;;
62353;SDS011;48391;49.184;2.418;2024-03-23T12:24:32;3.88;;;1.02;;
62353;SDS011;48391;49.184;2.418;2024-03-23T12:27:01;2.83;;;0.52;;
62353;SDS011;48391;49.184;2.418;2024-03-23T12:29:28;2.72;;;0.60;;
62353;SDS011;48391;49.184;2.418;2024-03-23T12:31:56;6.07;;;1.10;;
62353;SDS011;48391;49.184;2.418;2024-03-23T12:34:22;3.92;;;1.65;;
62353;SDS011;48391;49.184;2.418;2024-03-23T12:36:48;4.60;;;0.68;;
62353;SDS011;48391;49.184;2.418;2024-03-23T12:39:14;3.53;;;0.32;;
62353;SDS011;48391;49.184;2.418;2024-03-23T12:41:40;5.55;;;0.80;;
62353;SDS011;48391;49.184;2.418;2024-03-23T12:44:06;5.53;;;0.70;;
62353;SDS011;48391;49.184;2.418;2024-03-23T12:46:34;4.40;;;1.58;;
62353;SDS011;48391;49.184;2.418;2024-03-23T12:49:00;3.08;;;0.80;;
62353;SDS011;48391;49.184;2.418;2024-03-23T12:51:26;6.28;;;1.50;;
62353;SDS011;48391;49.184;2.418;2024-03-23T12:53:52;7.00;;;1.73;;
62353;SDS011;48391;49.184;2.418;2024-03-23T12:56:18;2.60;;;0.82;;
62353;SDS011;48391;49.184;2.418;2024-03-23T12:58:44;5.43;;;1.25;;
62353;SDS011;48391;49.184;2.418;2024-03-23T13:01:13;3.50;;;1.30;;
62353;SDS011;48391;49.184;2.418;2024-03-23T13:03:39;5.10;;;0.80;;
62353;SDS011;48391;49.184;2.418;2024-03-23T13:06:06;2.55;;;0.50;;
62353;SDS011;48391;49.184;2.418;2024-03-23T13:08:33;3.20;;;0.80;;
62353;SDS011;48391;49.184;2.418;2024-03-23T13:10:59;7.38;;;0.90;;
62353;SDS011;48391;49.184;2.418;2024-03-23T13:13:25;3.85;;;0.68;;
62353;SDS011;48391;49.184;2.418;2024-03-23T13:15:51;4.65;;;1.20;;
62353;SDS011;48391;49.184;2.418;2024-03-23T13:18:17;5.10;;;1.65;;
62353;SDS011;48391;49.184;2.418;2024-03-23T13:20:44;4.70;;;0.50;;
62353;SDS011;48391;49.184;2.418;2024-03-23T13:23:10;3.47;;;0.70;;
62353;SDS011;48391;49.184;2.418;2024-03-23T13:25:36;4.57;;;0.45;;
62353;SDS011;48391;49.184;2.418;2024-03-23T13:28:02;3.90;;;0.60;;
62353;SDS011;48391;49.184;2.418;2024-03-23T13:30:28;2.55;;;0.65;;
62353;SDS011;48391;49.184;2.418;2024-03-23T13:32:54;5.20;;;0.90;;
62353;SDS011;48391;49.184;2.418;2024-03-23T13:35:20;4.65;;;1.00;;
62353;SDS011;48391;49.184;2.418;2024-03-23T13:37:47;6.80;;;0.98;;
62353;SDS011;48391;49.184;2.418;2024-03-23T13:40:13;4.55;;;1.15;;
62353;SDS011;48391;49.184;2.418;2024-03-23T13:42:39;4.35;;;0.82;;
62353;SDS011;48391;49.184;2.418;2024-03-23T13:45:05;4.75;;;0.90;;
62353;SDS011;48391;49.184;2.418;2024-03-23T13:47:32;7.07;;;1.88;;
62353;SDS011;48391;49.184;2.418;2024-03-23T13:49:58;7.78;;;0.70;;
62353;SDS011;48391;49.184;2.418;2024-03-23T13:52:24;9.60;;;0.60;;
62353;SDS011;48391;49.184;2.418;2024-03-23T13:54:51;3.17;;;0.40;;
62353;SDS011;48391;49.184;2.418;2024-03-23T13:57:17;5.30;;;0.85;;
62353;SDS011;48391;49.184;2.418;2024-03-23T13:59:46;4.43;;;0.35;;
62353;SDS011;48391;49.184;2.418;2024-03-23T14:02:14;4.95;;;0.63;;
62353;SDS011;48391;49.184;2.418;2024-03-23T14:04:40;5.45;;;1.17;;
62353;SDS011;48391;49.184;2.418;2024-03-23T14:07:06;5.68;;;0.68;;
62353;SDS011;48391;49.184;2.418;2024-03-23T14:09:34;5.95;;;0.70;;
62353;SDS011;48391;49.184;2.418;2024-03-23T14:12:00;3.67;;;0.55;;
62353;SDS011;48391;49.184;2.418;2024-03-23T14:14:26;5.97;;;0.85;;
62353;SDS011;48391;49.184;2.418;2024-03-23T14:16:52;7.97;;;0.98;;
62353;SDS011;48391;49.184;2.418;2024-03-23T14:19:18;1.85;;;0.43;;
62353;SDS011;48391;49.184;2.418;2024-03-23T14:21:44;6.03;;;1.70;;
62353;SDS011;48391;49.184;2.418;2024-03-23T14:24:11;4.18;;;1.67;;
62353;SDS011;48391;49.184;2.418;2024-03-23T14:26:37;6.22;;;0.90;;
62353;SDS011;48391;49.184;2.418;2024-03-23T14:29:03;3.33;;;0.95;;
62353;SDS011;48391;49.184;2.418;2024-03-23T14:31:29;3.67;;;0.98;;
62353;SDS011;48391;49.184;2.418;2024-03-23T14:33:55;3.72;;;0.50;;
62353;SDS011;48391;49.184;2.418;2024-03-23T14:36:21;4.07;;;1.23;;
62353;SDS011;48391;49.184;2.418;2024-03-23T14:38:48;4.65;;;1.33;;
62353;SDS011;48391;49.184;2.418;2024-03-23T14:41:14;1.40;;;0.40;;
62353;SDS011;48391;49.184;2.418;2024-03-23T14:43:40;2.67;;;0.28;;
62353;SDS011;48391;49.184;2.418;2024-03-23T14:46:12;3.88;;;0.20;;
62353;SDS011;48391;49.184;2.418;2024-03-23T14:48:39;5.10;;;0.20;;
62353;SDS011;48391;49.184;2.418;2024-03-23T14:51:06;6.35;;;0.60;;
62353;SDS011;48391;49.184;2.418;2024-03-23T14:53:36;7.53;;;1.13;;
62353;SDS011;48391;49.184;2.418;2024-03-23T14:56:03;2.10;;;0.60;;
62353;SDS011;48391;49.184;2.418;2024-03-23T14:58:29;5.35;;;0.50;;
62353;SDS011;48391;49.184;2.418;2024-03-23T15:01:02;3.20;;;0.63;;
62353;SDS011;48391;49.184;2.418;2024-03-23T15:03:28;8.18;;;0.98;;
62353;SDS011;48391;49.184;2.418;2024-03-23T15:08:20;4.72;;;0.70;;
62353;SDS011;48391;49.184;2.418;2024-03-23T15:10:46;5.40;;;1.58;;
62353;SDS011;48391;49.184;2.418;2024-03-23T15:13:12;3.45;;;0.77;;
62353;SDS011;48391;49.184;2.418;2024-03-23T15:15:40;3.45;;;0.50;;
62353;SDS011;48391;49.184;2.418;2024-03-23T15:18:08;2.78;;;0.63;;
62353;SDS011;48391;49.184;2.418;2024-03-23T15:20:34;2.75;;;0.35;;
62353;SDS011;48391;49.184;2.418;2024-03-23T15:23:01;1.42;;;0.30;;
62353;SDS011;48391;49.184;2.418;2024-03-23T15:25:28;4.47;;;1.42;;
62353;SDS011;48391;49.184;2.418;2024-03-23T15:27:54;3.95;;;1.33;;
62353;SDS011;48391;49.184;2.418;2024-03-23T15:30:20;5.00;;;0.73;;
62353;SDS011;48391;49.184;2.418;2024-03-23T15:32:46;6.63;;;0.50;;
62353;SDS011;48391;49.184;2.418;2024-03-23T15:35:12;4.22;;;1.05;;
62353;SDS011;48391;49.184;2.418;2024-03-23T15:37:38;4.80;;;0.38;;
62353;SDS011;48391;49.184;2.418;2024-03-23T15:40:06;1.77;;;0.65;;
62353;SDS011;48391;49.184;2.418;2024-03-23T15:42:32;3.53;;;0.45;;
62353;SDS011;48391;49.184;2.418;2024-03-23T15:44:58;4.15;;;1.42;;
62353;SDS011;48391;49.184;2.418;2024-03-23T15:47:24;2.70;;;0.40;;
62353;SDS011;48391;49.184;2.418;2024-03-23T15:49:50;1.40;;;0.40;;
62353;SDS011;48391;49.184;2.418;2024-03-23T15:52:18;7.03;;;1.67;;
62353;SDS011;48391;49.184;2.418;2024-03-23T15:54:44;5.90;;;0.80;;
62353;SDS011;48391;49.184;2.418;2024-03-23T15:57:10;2.78;;;0.52;;
62353;SDS011;48391;49.184;2.418;2024-03-23T15:59:39;2.50;;;0.88;;
62353;SDS011;48391;49.184;2.418;2024-03-23T16:02:05;3.13;;;0.68;;
62353;SDS011;48391;49.184;2.418;2024-03-23T16:04:31;1.95;;;0.22;;
62353;SDS011;48391;49.184;2.418;2024-03-23T16:06:57;2.55;;;0.70;;
62353;SDS011;48391;49.184;2.418;2024-03-23T16:09:23;0.98;;;0.40;;
62353;SDS011;48391;49.184;2.418;2024-03-23T16:11:49;1.48;;;0.30;;
62353;SDS011;48391;49.184;2.418;2024-03-23T16:14:15;0.60;;;0.20;;
62353;SDS011;48391;49.184;2.418;2024-03-23T16:16:41;3.08;;;0.70;;
62353;SDS011;48391;49.184;2.418;2024-03-23T16:19:07;0.80;;;0.30;;
62353;SDS011;48391;49.184;2.418;2024-03-23T16:21:33;2.95;;;0.50;;
62353;SDS011;48391;49.184;2.418;2024-03-23T16:23:59;0.68;;;0.30;;
62353;SDS011;48391;49.184;2.418;2024-03-23T16:26:25;1.33;;;0.30;;
62353;SDS011;48391;49.184;2.418;2024-03-23T16:28:51;2.97;;;1.25;;
62353;SDS011;48391;49.184;2.418;2024-03-23T16:31:21;1.73;;;1.10;;
62353;SDS011;48391;49.184;2.418;2024-03-23T16:33:47;0.70;;;0.30;;
62353;SDS011;48391;49.184;2.418;2024-03-23T16:36:13;0.93;;;0.25;;
62353;SDS011;48391;49.184;2.418;2024-03-23T16:38:40;1.77;;;0.90;;
62353;SDS011;48391;49.184;2.418;2024-03-23T16:41:07;0.98;;;0.25;;
62353;SDS011;48391;49.184;2.418;2024-03-23T16:43:34;1.92;;;0.20;;
62353;SDS011;48391;49.184;2.418;2024-03-23T16:46:03;0.20;;;0.10;;
62353;SDS011;48391;49.184;2.418;2024-03-23T16:48:40;0.43;;;0.20;;
62353;SDS011;48391;49.184;2.418;2024-03-23T16:51:10;0.40;;;0.20;;
62353;SDS011;48391;49.184;2.418;2024-03-23T16:53:36;0.15;;;0.15;;
62353;SDS011;48391;49.184;2.418;2024-03-23T16:56:06;0.03;;;0.00;;
62353;SDS011;48391;49.184;2.418;2024-03-23T16:58:33;1.42;;;0.75;;
62353;SDS011;48391;49.184;2.418;2024-03-23T17:01:03;0.40;;;0.00;;
62353;SDS011;48391;49.184;2.418;2024-03-23T17:03:29;0.20;;;0.08;;
62353;SDS011;48391;49.184;2.418;2024-03-23T17:05:55;0.65;;;0.28;;
62353;SDS011;48391;49.184;2.418;2024-03-23T17:08:24;1.05;;;0.47;;
62353;SDS011;48391;49.184;2.418;2024-03-23T17:10:50;0.85;;;0.20;;
62353;SDS011;48391;49.184;2.418;2024-03-23T17:13:18;0.73;;;0.40;;
62353;SDS011;48391;49.184;2.418;2024-03-23T17:15:47;1.40;;;0.47;;
62353;SDS011;48391;49.184;2.418;2024-03-23T17:18:13;1.38;;;0.77;;
62353;SDS011;48391;49.184;2.418;2024-03-23T17:20:44;1.73;;;0.45;;
62353;SDS011;48391;49.184;2.418;2024-03-23T17:23:10;0.85;;;0.65;;
62353;SDS011;48391;49.184;2.418;2024-03-23T17:25:36;0.90;;;0.70;;
62353;SDS011;48391;49.184;2.418;2024-03-23T17:28:03;1.10;;;0.93;;
62353;SDS011;48391;49.184;2.418;2024-03-23T17:30:32;1.02;;;0.35;;
62353;SDS011;48391;49.184;2.418;2024-03-23T17:33:00;0.43;;;0.30;;
62353;SDS011;48391;49.184;2.418;2024-03-23T17:35:27;2.03;;;1.15;;
62353;SDS011;48391;49.184;2.418;2024-03-23T17:38:01;0.85;;;0.47;;
62353;SDS011;48391;49.184;2.418;2024-03-23T17:40:28;0.65;;;0.20;;
62353;SDS011;48391;49.184;2.418;2024-03-23T17:42:54;1.05;;;0.13;;
62353;SDS011;48391;49.184;2.418;2024-03-23T17:45:24;1.85;;;0.38;;
62353;SDS011;48391;49.184;2.418;2024-03-23T17:47:56;1.13;;;0.68;;
62353;SDS011;48391;49.184;2.418;2024-03-23T17:50:22;0.95;;;0.45;;
62353;SDS011;48391;49.184;2.418;2024-03-23T17:52:48;4.15;;;0.82;;
62353;SDS011;48391;49.184;2.418;2024-03-23T17:55:18;1.63;;;0.75;;
62353;SDS011;48391;49.184;2.418;2024-03-23T17:57:47;3.50;;;1.08;;
62353;SDS011;48391;49.184;2.418;2024-03-23T18:00:15;1.25;;;0.65;;
62353;SDS011;48391;49.184;2.418;2024-03-23T18:02:41;1.02;;;0.50;;
62353;SDS011;48391;49.184;2.418;2024-03-23T18:05:10;3.28;;;1.77;;
62353;SDS011;48391;49.184;2.418;2024-03-23T18:07:36;3.75;;;2.60;;
62353;SDS011;48391;49.184;2.418;2024-03-23T18:10:02;2.75;;;1.70;;
62353;SDS011;48391;49.184;2.418;2024-03-23T18:12:29;4.07;;;2.50;;
62353;SDS011;48391;49.184;2.418;2024-03-23T18:14:57;4.55;;;2.60;;
62353;SDS011;48391;49.184;2.418;2024-03-23T18:17:27;3.13;;;2.05;;
62353;SDS011;48391;49.184;2.418;2024-03-23T18:19:59;3.97;;;0.98;;
62353;SDS011;48391;49.184;2.418;2024-03-23T18:22:27;5.10;;;2.00;;
62353;SDS011;48391;49.184;2.418;2024-03-23T18:24:53;4.78;;;2.13;;
62353;SDS011;48391;49.184;2.418;2024-03-23T18:27:19;4.43;;;0.98;;
62353;SDS011;48391;49.184;2.418;2024-03-23T18:29:48;1.13;;;0.55;;
62353;SDS011;48391;49.184;2.418;2024-03-23T18:32:19;2.40;;;0.22;;
62353;SDS011;48391;49.184;2.418;2024-03-23T18:34:48;2.70;;;0.70;;
62353;SDS011;48391;49.184;2.418;2024-03-23T18:37:14;1.08;;;0.90;;
62353;SDS011;48391;49.184;2.418;2024-03-23T18:39:43;2.50;;;0.40;;
62353;SDS011;48391;49.184;2.418;2024-03-23T18:42:12;3.33;;;0.82;;
62353;SDS011;48391;49.184;2.418;2024-03-23T18:44:43;1.83;;;1.30;;
62353;SDS011;48391;49.184;2.418;2024-03-23T18:47:14;4.05;;;1.60;;
62353;SDS011;48391;49.184;2.418;2024-03-23T18:49:45;9.40;;;4.65;;
62353;SDS011;48391;49.184;2.418;2024-03-23T18:52:17;8.80;;;5.50;;
62353;SDS011;48391;49.184;2.418;2024-03-23T18:54:49;11.75;;;5.07;;
62353;SDS011;48391;49.184;2.418;2024-03-23T18:57:15;9.18;;;5.07;;
62353;SDS011;48391;49.184;2.418;2024-03-23T18:59:41;5.55;;;4.35;;
62353;SDS011;48391;49.184;2.418;2024-03-23T19:02:07;7.78;;;4.70;;
62353;SDS011;48391;49.184;2.418;2024-03-23T19:04:35;6.32;;;5.20;;
62353;SDS011;48391;49.184;2.418;2024-03-23T19:07:02;5.75;;;3.88;;
62353;SDS011;48391;49.184;2.418;2024-03-23T19:09:37;3.25;;;2.38;;
62353;SDS011;48391;49.184;2.418;2024-03-23T19:12:04;4.25;;;2.33;;
62353;SDS011;48391;49.184;2.418;2024-03-23T19:14:30;4.13;;;2.33;;
62353;SDS011;48391;49.184;2.418;2024-03-23T19:17:01;2.20;;;2.00;;
62353;SDS011;48391;49.184;2.418;2024-03-23T19:19:30;5.13;;;2.38;;
62353;SDS011;48391;49.184;2.418;2024-03-23T19:21:59;7.60;;;3.75;;
62353;SDS011;48391;49.184;2.418;2024-03-23T19:24:25;7.20;;;3.25;;
62353;SDS011;48391;49.184;2.418;2024-03-23T19:26:51;5.30;;;3.78;;
62353;SDS011;48391;49.184;2.418;2024-03-23T19:29:17;4.63;;;3.15;;
62353;SDS011;48391;49.184;2.418;2024-03-23T19:31:43;5.28;;;3.90;;
62353;SDS011;48391;49.184;2.418;2024-03-23T19:34:09;5.85;;;3.95;;
62353;SDS011;48391;49.184;2.418;2024-03-23T19:36:35;6.00;;;3.28;;
62353;SDS011;48391;49.184;2.418;2024-03-23T19:41:31;6.28;;;4.03;;
62353;SDS011;48391;49.184;2.418;2024-03-23T19:43:57;7.88;;;3.90;;
62353;SDS011;48391;49.184;2.418;2024-03-23T19:46:25;6.90;;;4.38;;
62353;SDS011;48391;49.184;2.418;2024-03-23T19:48:51;8.48;;;3.88;;
62353;SDS011;48391;49.184;2.418;2024-03-23T19:51:18;7.53;;;5.03;;
62353;SDS011;48391;49.184;2.418;2024-03-23T19:53:44;8.10;;;4.43;;
62353;SDS011;48391;49.184;2.418;2024-03-23T19:56:10;7.32;;;4.57;;
62353;SDS011;48391;49.184;2.418;2024-03-23T19:58:36;9.20;;;5.68;;
62353;SDS011;48391;49.184;2.418;2024-03-23T20:01:06;10.63;;;4.78;;
62353;SDS011;48391;49.184;2.418;2024-03-23T20:03:38;5.47;;;3.10;;
62353;SDS011;48391;49.184;2.418;2024-03-23T20:06:04;5.07;;;2.75;;
62353;SDS011;48391;49.184;2.418;2024-03-23T20:08:33;4.03;;;2.63;;
62353;SDS011;48391;49.184;2.418;2024-03-23T20:11:00;7.65;;;3.33;;
62353;SDS011;48391;49.184;2.418;2024-03-23T20:13:26;7.78;;;3.70;;
62353;SDS011;48391;49.184;2.418;2024-03-23T20:15:55;5.50;;;4.43;;
62353;SDS011;48391;49.184;2.418;2024-03-23T20:18:22;7.68;;;4.70;;
62353;SDS011;48391;49.184;2.418;2024-03-23T20:20:49;6.57;;;4.68;;
62353;SDS011;48391;49.184;2.418;2024-03-23T20:23:16;13.02;;;6.55;;
62353;SDS011;48391;49.184;2.418;2024-03-23T20:25:52;8.90;;;6.32;;
62353;SDS011;48391;49.184;2.418;2024-03-23T20:28:18;8.70;;;4.47;;
62353;SDS011;48391;49.184;2.418;2024-03-23T20:30:45;8.80;;;5.43;;
62353;SDS011;48391;49.184;2.418;2024-03-23T20:33:11;8.13;;;5.25;;
62353;SDS011;48391;49.184;2.418;2024-03-23T20:35:37;5.53;;;4.97;;
62353;SDS011;48391;49.184;2.418;2024-03-23T20:38:12;12.23;;;5.55;;
62353;SDS011;48391;49.184;2.418;2024-03-23T20:40:37;10.63;;;6.57;;
62353;SDS011;48391;49.184;2.418;2024-03-23T20:43:06;9.05;;;6.10;;
62353;SDS011;48391;49.184;2.418;2024-03-23T20:45:34;9.73;;;6.43;;
62353;SDS011;48391;49.184;2.418;2024-03-23T20:48:00;10.82;;;6.95;;
62353;SDS011;48391;49.184;2.418;2024-03-23T20:50:26;8.43;;;5.40;;
62353;SDS011;48391;49.184;2.418;2024-03-23T20:52:52;9.35;;;5.20;;
62353;SDS011;48391;49.184;2.418;2024-03-23T20:55:19;8.75;;;5.82;;
62353;SDS011;48391;49.184;2.418;2024-03-23T20:57:45;11.65;;;5.97;;
62353;SDS011;48391;49.184;2.418;2024-03-23T21:00:11;11.23;;;6.82;;
62353;SDS011;48391;49.184;2.418;2024-03-23T21:02:38;13.93;;;7.78;;
62353;SDS011;48391;49.184;2.418;2024-03-23T21:05:04;12.10;;;7.63;;
62353;SDS011;48391;49.184;2.418;2024-03-23T21:07:30;16.15;;;9.70;;